Caratunk, Maine
Current Conditions -  °F | °C
As of 8:55 AM on Wednesday 26 Nov 2014 (Local Time) from KWVL Reporting Station
Clear Clear  
Wind Chill: 34°   Ceiling: Unl
Heat Index: 39°   Visibility: 10mi
Dew Point: 19°   Wind: 7mph
Humidity: 45%   Direction: 310°NW
Pressure: 30.22"   Gusts: NA
Location:  45.23°N, 69.99°W
Report Text: KWVL 261355Z 31006KT 10SM CLR 04/M07 A3022 RMK AO1
Loading
Personal Weather Stations






























Interactive Weather Map New forecast layout! Learn more

10-Day Weather Forecast

Advertisements
Track Severe Weather on mobile